Hughsonville, New York
Current Conditions -  °F | °C
As of 12:34 PM on Thursday 23 Oct 2014 (Local Time) from KPOU Reporting Station
Light Rain Light Rain  
Wind Chill: 43°   Ceiling: 1600
Heat Index: 49°   Visibility: 8mi
Dew Point: 45°   Wind: 15mph
Humidity: 86%   Direction: 360°N
Pressure: 29.75"   Gusts: 29mph
Location:  41.58°N, 73.93°W
Report Text: KPOU 231634Z 36013G25KT 8SM -RA OVC016 09/07 A2975 RMK AO2 P0003 T00940072
Loading
Personal Weather Stations






























Interactive Weather Map
Tropical Storm Tracking
New forecast layout! Learn more

10-Day Weather Forecast

Advertisements
Track Severe Weather on mobile